Time;durP1;ratioP1;P1;durP2;ratioP2;P2;SDS_P1;SDS_P2;PMS_P1;PMS_P2;Temp;Humidity;BMP_temperature;BMP_pressure;BME280_temperature;BME280_humidity;BME280_pressure;Samples;Min_cycle;Max_cycle;Signal;HPM_P1;HPM_P2
2022/04/08 00:02:24;;;;;;;5.28;5.07;;;;;;;6.11;90.94;99284.91;6084201;23;20085;-65
2022/04/08 00:04:51;;;;;;;4.00;3.85;;;;;;;6.09;91.75;99286.78;6071280;23;20101;-65
2022/04/08 00:07:17;;;;;;;3.20;3.10;;;;;;;5.84;92.73;99276.88;6095508;23;20024;-65
2022/04/08 00:09:44;;;;;;;3.25;3.15;;;;;;;5.92;93.84;99281.66;6082476;23;20033;-65
2022/04/08 00:12:10;;;;;;;3.38;3.28;;;;;;;5.54;94.30;99256.81;6093329;23;20501;-66
2022/04/08 00:14:37;;;;;;;3.40;3.30;;;;;;;5.68;95.20;99294.25;6087843;23;20083;-66
2022/04/08 00:17:04;;;;;;;3.17;3.08;;;;;;;5.68;95.37;99305.50;6102097;23;20029;-65
2022/04/08 00:19:31;;;;;;;4.70;4.50;;;;;;;5.58;94.56;99297.34;6081053;23;20030;-65
2022/04/08 00:21:58;;;;;;;3.45;3.35;;;;;;;5.54;94.34;99289.81;6096989;23;20508;-65
2022/04/08 00:24:24;;;;;;;4.82;4.63;;;;;;;5.55;94.58;99315.75;6086366;23;20085;-65
2022/04/08 00:26:51;;;;;;;3.50;3.40;;;;;;;5.44;94.76;99315.47;6102756;23;20010;-66
2022/04/08 00:29:18;;;;;;;4.53;4.32;;;;;;;5.35;95.48;99311.63;6092554;23;20211;-65
2022/04/08 00:31:45;;;;;;;3.20;3.10;;;;;;;5.34;93.49;99306.47;6107622;23;20022;-65
2022/04/08 00:34:12;;;;;;;3.13;3.03;;;;;;;5.24;92.95;99307.91;6086558;23;20021;-64
2022/04/08 00:36:38;;;;;;;3.08;2.97;;;;;;;5.29;93.38;99314.53;6110770;23;20669;-65
2022/04/08 00:39:05;;;;;;;3.10;3.00;;;;;;;5.16;93.08;99327.31;6089092;23;20100;-64
2022/04/08 00:41:32;;;;;;;4.28;4.07;;;;;;;5.11;93.72;99326.75;6101168;23;20917;-65
2022/04/08 00:43:58;;;;;;;3.20;3.10;;;;;;;5.03;92.33;99309.84;6066304;23;20093;-65
2022/04/08 00:46:25;;;;;;;4.97;4.78;;;;;;;5.11;93.19;99342.34;6087084;23;20018;-64
2022/04/08 00:48:51;;;;;;;3.20;3.10;;;;;;;5.12;92.08;99354.41;6098734;23;20042;-65
2022/04/08 00:51:18;;;;;;;3.88;3.72;;;;;;;5.04;92.70;99353.97;6081666;23;20096;-65
2022/04/08 00:53:46;;;;;;;3.22;3.13;;;;;;;4.97;93.85;99350.84;6092701;23;20015;-66
2022/04/08 00:56:13;;;;;;;3.20;3.10;;;;;;;3.98;93.83;99206.81;6097813;23;20042;-64
2022/04/08 00:58:39;;;;;;;3.20;3.10;;;;;;;4.92;94.09;99371.03;6097609;23;20060;-65
2022/04/08 01:01:06;;;;;;;3.20;3.10;;;;;;;4.87;94.61;99377.38;6088407;23;20014;-65
2022/04/08 01:03:32;;;;;;;4.25;4.05;;;;;;;4.67;94.63;99335.03;6084262;23;20025;-65
2022/04/08 01:05:59;;;;;;;3.20;3.10;;;;;;;4.66;93.95;99346.34;6085015;23;20042;-64
2022/04/08 01:08:25;;;;;;;5.15;4.95;;;;;;;4.58;94.36;99344.09;6089330;23;20070;-64
2022/04/08 01:10:53;;;;;;;3.30;3.20;;;;;;;3.75;94.64;99209.72;6083341;23;20018;-64
2022/04/08 01:13:20;;;;;;;4.55;4.35;;;;;;;4.77;95.40;99388.25;6099105;23;20029;-64
2022/04/08 01:15:46;;;;;;;3.08;2.97;;;;;;;4.64;94.93;99371.56;6096629;23;20071;-65
2022/04/08 01:18:13;;;;;;;3.20;3.10;;;;;;;4.80;95.35;99400.22;6087024;23;20014;-65
2022/04/08 01:20:40;;;;;;;3.30;3.20;;;;;;;4.83;94.73;99400.09;6108966;23;20316;-64
2022/04/08 01:23:06;;;;;;;3.13;3.03;;;;;;;4.93;93.60;99397.84;6074686;23;20030;-65
2022/04/08 01:25:33;;;;;;;4.13;3.92;;;;;;;4.68;93.99;99378.28;6100675;23;20084;-65
2022/04/08 01:27:59;;;;;;;3.40;3.30;;;;;;;4.61;93.21;99361.31;6088631;23;20367;-64
2022/04/08 01:30:26;;;;;;;5.22;5.03;;;;;;;4.71;93.34;99388.53;6084917;23;20303;-65
2022/04/08 01:32:52;;;;;;;3.40;3.30;;;;;;;4.97;93.67;99420.19;6093759;23;20097;-65
2022/04/08 01:35:19;;;;;;;4.85;4.65;;;;;;;4.76;92.78;99396.09;6086390;23;20021;-64
2022/04/08 01:37:45;;;;;;;3.28;3.17;;;;;;;5.00;93.25;99430.44;6117185;23;20017;-65
2022/04/08 01:40:12;;;;;;;2.92;2.83;;;;;;;4.80;93.44;99406.25;6053542;23;20033;-65
2022/04/08 01:42:38;;;;;;;3.00;2.90;;;;;;;4.95;92.94;99438.47;6113006;23;20025;-65
2022/04/08 01:45:05;;;;;;;3.17;3.08;;;;;;;4.95;92.59;99435.00;6084116;23;20025;-65
2022/04/08 01:47:32;;;;;;;4.45;4.25;;;;;;;4.71;92.88;99419.72;6093459;23;20353;-65
2022/04/08 01:49:58;;;;;;;3.10;3.00;;;;;;;4.78;93.68;99428.88;6085665;23;20018;-65
2022/04/08 01:52:24;;;;;;;4.82;4.63;;;;;;;4.79;93.62;99446.19;6096888;23;20033;-66
2022/04/08 01:54:51;;;;;;;3.10;3.00;;;;;;;4.92;93.65;99449.00;6096832;23;20044;-65
2022/04/08 01:57:22;;;;;;;3.58;3.47;;;;;;;4.95;93.78;99458.41;6082505;23;20105;-64
2022/04/08 01:59:48;;;;;;;3.20;3.10;;;;;;;4.91;94.95;99462.94;6075121;23;20018;-65
2022/04/08 02:02:17;;;;;;;3.55;3.42;;;;;;;4.74;94.01;99432.56;6103580;23;20010;-65
2022/04/08 02:04:43;;;;;;;3.20;3.10;;;;;;;4.92;93.91;99456.81;6077129;23;20016;-65
2022/04/08 02:07:10;;;;;;;3.42;3.22;;;;;;;4.12;94.32;99372.28;6099367;23;20049;-65
2022/04/08 02:09:36;;;;;;;3.30;3.20;;;;;;;4.86;94.81;99441.50;6072635;23;20180;-65
2022/04/08 02:12:03;;;;;;;3.20;3.10;;;;;;;5.07;94.03;99476.03;6108926;23;20104;-65
2022/04/08 02:14:30;;;;;;;4.82;4.63;;;;;;;4.69;93.75;99405.97;6081816;23;20022;-66
2022/04/08 02:16:56;;;;;;;3.30;3.20;;;;;;;4.89;93.74;99437.91;6113476;23;20089;-65
2022/04/08 02:19:22;;;;;;;5.38;5.18;;;;;;;5.13;93.76;99469.66;6054374;23;20500;-65
2022/04/08 02:21:49;;;;;;;3.10;3.00;;;;;;;4.92;92.24;99430.81;6096626;23;20508;-65
2022/04/08 02:24:16;;;;;;;3.75;3.60;;;;;;;5.12;92.20;99481.84;6085516;23;20018;-64
2022/04/08 02:26:43;;;;;;;3.30;3.20;;;;;;;5.10;92.17;99460.25;6107959;23;20185;-65
2022/04/08 02:29:10;;;;;;;2.90;2.80;;;;;;;5.13;92.16;99480.06;6102399;23;20174;-65
2022/04/08 02:31:37;;;;;;;3.53;3.42;;;;;;;5.09;92.59;99487.19;6097979;23;20046;-65
2022/04/08 02:34:03;;;;;;;3.20;3.10;;;;;;;5.11;92.18;99480.16;6124397;23;20091;-65
2022/04/08 02:36:30;;;;;;;4.68;4.47;;;;;;;5.12;92.35;99487.03;6109744;23;20029;-65
2022/04/08 02:38:56;;;;;;;3.30;3.20;;;;;;;5.12;93.21;99491.41;6113086;23;20031;-65
2022/04/08 02:41:23;;;;;;;4.80;4.60;;;;;;;5.11;94.33;99490.56;6113151;23;20408;-65
2022/04/08 02:43:49;;;;;;;3.30;3.20;;;;;;;5.05;94.43;99482.22;6112026;23;20013;-65
2022/04/08 02:46:15;;;;;;;3.72;3.58;;;;;;;4.85;95.10;99457.19;6090055;23;20045;-64
2022/04/08 02:48:42;;;;;;;3.00;2.90;;;;;;;4.82;94.61;99450.38;6109376;23;20162;-65
2022/04/08 02:51:08;;;;;;;3.10;3.00;;;;;;;5.06;95.31;99499.50;6101530;23;20022;-65
2022/04/08 02:53:35;;;;;;;3.58;3.47;;;;;;;4.91;96.45;99475.94;6100788;23;20067;-64
2022/04/08 02:56:01;;;;;;;3.10;3.00;;;;;;;5.04;96.84;99496.16;6097388;23;20013;-64
2022/04/08 02:58:28;;;;;;;5.05;4.85;;;;;;;4.25;96.06;99380.38;6100574;23;20157;-66
2022/04/08 03:00:57;;;;;;;3.20;3.10;;;;;;;4.97;96.25;99491.25;6107097;23;20025;-66
2022/04/08 03:03:26;;;;;;;4.57;4.38;;;;;;;4.74;96.62;99474.13;6104105;23;20037;-66
2022/04/08 03:05:53;;;;;;;3.10;3.00;;;;;;;4.83;97.45;99496.28;6114311;23;20451;-66
2022/04/08 03:08:20;;;;;;;4.65;4.45;;;;;;;4.55;98.35;99479.38;6105432;23;20138;-66
2022/04/08 03:10:47;;;;;;;3.20;3.10;;;;;;;4.63;98.70;99505.00;6115332;23;20034;-65
2022/04/08 03:13:13;;;;;;;2.95;2.85;;;;;;;4.36;100.00;99476.78;6114680;23;20344;-65
2022/04/08 03:15:40;;;;;;;3.00;2.90;;;;;;;4.24;100.00;99458.34;6119335;23;20091;-64
2022/04/08 03:18:06;;;;;;;3.30;3.20;;;;;;;4.37;100.00;99498.41;6105533;23;20516;-65
2022/04/08 03:20:33;;;;;;;4.22;4.03;;;;;;;3.82;100.00;99423.88;6100978;23;20660;-66
2022/04/08 03:22:59;;;;;;;3.20;3.10;;;;;;;4.20;100.00;99505.19;6108124;23;20491;-65
2022/04/08 03:25:26;;;;;;;5.72;5.30;;;;;;;4.17;100.00;99500.16;6120970;23;20017;-64
2022/04/08 03:27:52;;;;;;;3.10;3.00;;;;;;;4.08;100.00;99507.53;6125183;23;20351;-65
2022/04/08 03:30:18;;;;;;;4.78;4.57;;;;;;;4.10;100.00;99513.50;6116815;23;20027;-66
2022/04/08 03:32:45;;;;;;;3.17;3.08;;;;;;;4.07;100.00;99511.88;6106795;23;20055;-65
2022/04/08 03:35:11;;;;;;;3.30;3.20;;;;;;;4.08;100.00;99507.53;6119122;23;20047;-64
2022/04/08 03:37:37;;;;;;;3.10;3.00;;;;;;;4.03;100.00;99506.88;6114689;23;21707;-65
2022/04/08 03:40:04;;;;;;;3.10;3.00;;;;;;;3.94;100.00;99506.38;6112550;23;20116;-65
2022/04/08 03:42:31;;;;;;;4.95;4.75;;;;;;;4.02;100.00;99518.19;6116283;23;20029;-65
2022/04/08 03:44:57;;;;;;;3.10;3.00;;;;;;;3.99;100.00;99525.19;6105748;23;20033;-65
2022/04/08 03:47:24;;;;;;;4.68;4.47;;;;;;;4.02;100.00;99525.97;6106662;23;20022;-65
2022/04/08 03:49:50;;;;;;;3.00;2.90;;;;;;;4.03;100.00;99538.88;6109282;23;20025;-64
2022/04/08 03:52:16;;;;;;;3.58;3.45;;;;;;;3.88;100.00;99514.44;6106730;23;20393;-64
2022/04/08 03:54:43;;;;;;;3.00;2.90;;;;;;;3.93;100.00;99514.22;6114755;23;20462;-65
2022/04/08 03:57:10;;;;;;;3.10;3.00;;;;;;;4.11;100.00;99543.72;6118036;23;20084;-65
2022/04/08 03:59:40;;;;;;;3.10;3.00;;;;;;;4.09;100.00;99537.75;6099911;23;20078;-64
2022/04/08 04:02:07;;;;;;;3.10;3.00;;;;;;;3.79;100.00;99496.69;6093194;23;20076;-65
2022/04/08 04:04:34;;;;;;;3.10;3.00;;;;;;;3.77;100.00;99511.47;6101538;23;20286;-65
2022/04/08 04:07:01;;;;;;;3.10;3.00;;;;;;;3.95;100.00;99543.56;6086942;23;20254;-63
2022/04/08 04:09:27;;;;;;;4.75;4.55;;;;;;;3.92;100.00;99562.69;6106131;23;20117;-64
2022/04/08 04:11:53;;;;;;;3.00;2.90;;;;;;;3.76;100.00;99548.69;6112704;23;20100;-65
2022/04/08 04:14:20;;;;;;;4.80;4.60;;;;;;;3.83;100.00;99564.84;6104593;23;20085;-64
2022/04/08 04:16:46;;;;;;;3.10;3.00;;;;;;;3.79;100.00;99570.19;6117062;23;20448;-65
2022/04/08 04:19:13;;;;;;;3.10;3.00;;;;;;;3.71;100.00;99566.19;6111242;23;20084;-63
2022/04/08 04:21:39;;;;;;;3.00;2.90;;;;;;;3.71;100.00;99579.16;6092856;23;20733;-65
2022/04/08 04:24:06;;;;;;;3.22;3.13;;;;;;;3.52;100.00;99553.16;6115287;23;20025;-64
2022/04/08 04:26:33;;;;;;;3.00;2.90;;;;;;;3.68;100.00;99581.91;6068416;23;20348;-65
2022/04/08 04:28:59;;;;;;;3.30;3.20;;;;;;;3.70;100.00;99585.28;6123566;23;20285;-67
2022/04/08 04:31:26;;;;;;;4.57;4.38;;;;;;;3.59;100.00;99558.03;6115929;23;20025;-64
2022/04/08 04:33:52;;;;;;;3.00;2.90;;;;;;;3.76;100.00;99577.25;6121144;23;20159;-67
2022/04/08 04:36:19;;;;;;;4.40;4.20;;;;;;;3.74;100.00;99576.47;6103552;23;20021;-64
2022/04/08 04:38:45;;;;;;;3.40;3.30;;;;;;;3.68;100.00;99574.97;6087200;23;20025;-65
2022/04/08 04:41:11;;;;;;;3.20;3.10;;;;;;;3.67;100.00;99577.63;6115225;23;20033;-64
2022/04/08 04:43:38;;;;;;;3.20;3.10;;;;;;;3.60;100.00;99574.44;6094160;23;20446;-65
2022/04/08 04:46:04;;;;;;;3.45;3.25;;;;;;;3.47;100.00;99562.88;6113041;23;20084;-65
2022/04/08 04:48:31;;;;;;;4.90;4.70;;;;;;;3.46;100.00;99577.59;6115325;23;20516;-63
2022/04/08 04:50:58;;;;;;;3.30;3.20;;;;;;;3.44;100.00;99584.59;6081332;23;20482;-64
2022/04/08 04:53:24;;;;;;;4.70;4.50;;;;;;;3.43;100.00;99589.84;6110551;23;20021;-63
2022/04/08 04:55:51;;;;;;;3.42;3.10;;;;;;;3.33;100.00;99579.03;6119339;23;20021;-64
2022/04/08 04:58:18;;;;;;;4.22;4.05;;;;;;;3.34;100.00;99572.91;6115396;23;20060;-63
2022/04/08 05:00:44;;;;;;;3.20;3.10;;;;;;;3.59;100.00;99596.94;6118128;23;20431;-64
2022/04/08 05:03:12;;;;;;;3.20;3.10;;;;;;;3.52;100.00;99558.34;6116008;23;20084;-69
2022/04/08 05:05:39;;;;;;;3.20;3.10;;;;;;;3.80;100.00;99578.78;6095694;23;20009;-68
2022/04/08 05:08:07;;;;;;;3.30;3.20;;;;;;;3.94;100.00;99591.19;6091351;23;20550;-68
2022/04/08 05:10:33;;;;;;;4.55;4.35;;;;;;;3.86;100.00;99560.38;6098536;23;20010;-68
2022/04/08 05:13:00;;;;;;;3.40;3.30;;;;;;;3.78;100.00;99557.25;6124002;23;20009;-65
2022/04/08 05:15:28;;;;;;;4.88;4.65;;;;;;;4.12;100.00;99592.97;6106902;23;20765;-70
2022/04/08 05:17:55;;;;;;;3.10;3.00;;;;;;;4.11;100.00;99585.25;6113217;23;20625;-67
2022/04/08 05:20:21;;;;;;;4.95;4.75;;;;;;;4.10;100.00;99568.00;6099360;23;20018;-67
2022/04/08 05:22:48;;;;;;;3.60;3.40;;;;;;;4.00;100.00;99550.22;6118956;23;20033;-68
2022/04/08 05:25:14;;;;;;;3.67;3.38;;;;;;;4.05;100.00;99544.84;6110300;23;20009;-64
2022/04/08 05:27:42;;;;;;;3.10;3.00;;;;;;;4.36;100.00;99596.25;6112210;23;20041;-65
2022/04/08 05:30:12;;;;;;;3.03;2.92;;;;;;;4.39;100.00;99598.75;6094345;23;20228;-68
2022/04/08 05:32:40;;;;;;;4.22;3.92;;;;;;;4.38;100.00;99593.59;6108924;23;20036;-68
2022/04/08 05:35:06;;;;;;;3.20;3.10;;;;;;;4.54;100.00;99591.16;6108437;23;20025;-70
2022/04/08 05:37:42;;;;;;;4.40;4.20;;;;;;;4.53;100.00;99589.47;6113171;23;20015;-69
2022/04/08 05:40:14;;;;;;;19.20;18.30;;;;;;;4.50;100.00;99580.06;6087780;23;20679;-72
2022/04/08 05:42:44;;;;;;;3.83;3.67;;;;;;;3.83;99.85;99454.09;6010855;23;20018;-65
2022/04/08 05:45:11;;;;;;;3.20;3.10;;;;;;;4.58;100.00;99570.16;6109879;23;20352;-70
2022/04/08 05:47:38;;;;;;;3.05;2.95;;;;;;;4.74;99.20;99598.88;6097388;23;20025;-69
2022/04/08 05:50:06;;;;;;;3.17;3.08;;;;;;;4.75;98.70;99594.53;6119487;23;20077;-64
2022/04/08 05:52:33;;;;;;;3.70;3.60;;;;;;;4.60;99.24;99568.34;6102094;23;20262;-70
2022/04/08 05:54:59;;;;;;;3.40;3.30;;;;;;;4.73;98.56;99596.34;6113455;23;20415;-65
2022/04/08 05:57:25;;;;;;;4.38;4.18;;;;;;;4.76;99.28;99593.63;6098174;23;20134;-65
2022/04/08 05:59:59;;;;;;;3.50;3.33;;;;;;;4.77;98.65;99605.69;6112505;23;20505;-66
2022/04/08 06:02:25;;;;;;;4.97;4.78;;;;;;;4.59;97.25;99555.41;6105602;23;20474;-65
2022/04/08 06:04:52;;;;;;;3.50;3.40;;;;;;;4.64;96.92;99548.25;6111890;23;20017;-64
2022/04/08 06:07:18;;;;;;;4.40;4.20;;;;;;;4.74;97.39;99548.69;6099682;23;20025;-68
2022/04/08 06:09:45;;;;;;;3.50;3.40;;;;;;;5.00;96.44;99581.25;6109336;23;20025;-69
2022/04/08 06:12:11;;;;;;;3.30;3.20;;;;;;;5.12;96.05;99572.84;6075355;23;20045;-64
2022/04/08 06:14:38;;;;;;;3.40;3.30;;;;;;;5.05;94.88;99550.69;6103696;23;20496;-65
2022/04/08 06:17:04;;;;;;;3.33;3.22;;;;;;;5.29;94.48;99572.06;6112448;23;20364;-65
2022/04/08 06:19:31;;;;;;;3.42;3.33;;;;;;;5.36;94.52;99570.00;6106411;23;20089;-65
2022/04/08 06:21:57;;;;;;;3.70;3.60;;;;;;;5.48;93.25;99558.97;6075870;23;20046;-64
2022/04/08 06:24:24;;;;;;;5.55;5.35;;;;;;;5.16;93.23;99506.78;6064805;23;20006;-65
2022/04/08 06:26:50;;;;;;;3.70;3.60;;;;;;;5.55;92.67;99570.78;6064570;23;20019;-65
2022/04/08 06:29:16;;;;;;;4.28;4.10;;;;;;;5.60;93.25;99563.56;6044554;23;20014;-65
2022/04/08 06:31:44;;;;;;;3.60;3.50;;;;;;;5.56;92.47;99543.00;6070015;23;20047;-64
2022/04/08 06:34:11;;;;;;;3.60;3.50;;;;;;;5.51;91.22;99544.97;6076008;23;20605;-65
2022/04/08 06:36:37;;;;;;;3.58;3.47;;;;;;;5.54;91.54;99522.25;6058573;23;20085;-65
2022/04/08 06:39:04;;;;;;;3.55;3.45;;;;;;;6.13;90.11;99564.41;6081822;23;20025;-65
2022/04/08 06:41:30;;;;;;;5.38;5.18;;;;;;;6.23;89.29;99567.34;6077215;23;20417;-65
2022/04/08 06:43:58;;;;;;;3.50;3.40;;;;;;;6.16;87.57;99545.16;6056661;23;20025;-69
2022/04/08 06:46:24;;;;;;;4.70;4.50;;;;;;;5.23;85.71;99420.63;6090819;23;20336;-70
2022/04/08 06:48:51;;;;;;;3.60;3.50;;;;;;;6.18;84.28;99567.59;6088513;23;20036;-70
2022/04/08 06:51:17;;;;;;;4.18;4.03;;;;;;;6.18;85.60;99577.19;6058519;23;20052;-65
2022/04/08 06:53:43;;;;;;;3.58;3.47;;;;;;;6.25;86.93;99554.25;6077775;23;20120;-71
2022/04/08 06:56:10;;;;;;;3.95;3.75;;;;;;;6.21;85.15;99555.34;6063589;23;20042;-69
2022/04/08 06:58:39;;;;;;;3.80;3.70;;;;;;;6.49;84.61;99558.16;6081264;23;20010;-70
2022/04/08 07:01:06;;;;;;;3.83;3.72;;;;;;;6.81;85.03;99575.59;6091119;23;20033;-70
2022/04/08 07:03:33;;;;;;;3.60;3.50;;;;;;;7.09;83.24;99570.53;6082449;23;20014;-66
2022/04/08 07:06:00;;;;;;;3.90;3.70;;;;;;;7.17;82.15;99562.28;6079828;23;20117;-71
2022/04/08 07:08:26;;;;;;;4.82;4.63;;;;;;;6.67;80.86;99532.03;6079644;23;20022;-70
2022/04/08 07:10:53;;;;;;;4.40;4.10;;;;;;;6.96;80.41;99525.22;6091289;23;20026;-69
2022/04/08 07:13:19;;;;;;;4.93;4.72;;;;;;;6.87;80.95;99541.34;6080224;23;20030;-65
2022/04/08 07:15:46;;;;;;;3.58;3.47;;;;;;;6.92;81.62;99540.19;6069839;23;20310;-65
2022/04/08 07:18:12;;;;;;;3.90;3.70;;;;;;;7.08;81.07;99542.78;6078082;23;20010;-65
2022/04/08 07:20:39;;;;;;;3.88;3.75;;;;;;;7.09;80.54;99520.13;6072735;23;21017;-65
2022/04/08 07:23:05;;;;;;;3.42;3.33;;;;;;;6.67;79.86;99491.13;6127330;23;20053;-68
2022/04/08 07:25:32;;;;;;;4.85;4.65;;;;;;;6.84;80.31;99494.59;6119411;23;20340;-71
2022/04/08 07:27:58;;;;;;;3.70;3.60;;;;;;;7.11;81.21;99539.97;6118506;23;20816;-68
2022/04/08 07:30:26;;;;;;;3.70;3.60;;;;;;;7.16;80.03;99537.97;6116595;23;20024;-69
2022/04/08 07:32:54;;;;;;;4.32;4.13;;;;;;;7.05;80.24;99535.09;6109307;23;20018;-68
2022/04/08 07:35:23;;;;;;;4.90;4.70;;;;;;;7.22;81.03;99544.59;6116925;23;20042;-68
2022/04/08 07:37:50;;;;;;;3.80;3.70;;;;;;;6.97;79.09;99539.91;6106908;23;20033;-71
2022/04/08 07:40:16;;;;;;;4.32;4.18;;;;;;;6.60;79.81;99539.34;6102211;23;20021;-65
2022/04/08 07:42:43;;;;;;;4.20;4.00;;;;;;;6.83;81.13;99545.06;6098275;23;20030;-65
2022/04/08 07:45:10;;;;;;;4.43;4.13;;;;;;;6.93;81.29;99544.44;6098485;23;20084;-65
2022/04/08 07:47:36;;;;;;;4.30;4.10;;;;;;;6.47;80.03;99512.25;6100655;23;20096;-65
2022/04/08 07:50:14;;;;;;;3.80;3.70;;;;;;;6.63;80.83;99513.09;6107391;23;23180;-65
2022/04/08 07:52:42;;;;;;;3.55;3.45;;;;;;;6.55;80.95;99468.38;6110632;23;20033;-68
2022/04/08 07:55:10;;;;;;;3.50;3.40;;;;;;;6.67;79.50;99519.81;6104274;23;20021;-70
2022/04/08 07:57:44;;;;;;;3.50;3.40;;;;;;;6.53;81.94;99540.59;6100476;23;20038;-65
2022/04/08 08:00:14;;;;;;;3.70;3.60;;;;;;;6.69;81.56;99522.34;6114003;23;20032;-65
2022/04/08 08:02:42;;;;;;;3.67;3.58;;;;;;;6.68;79.15;99541.53;6102922;23;20022;-65
2022/04/08 08:05:09;;;;;;;3.72;3.60;;;;;;;6.66;79.82;99515.53;6097856;23;20018;-65
2022/04/08 08:07:45;;;;;;;4.00;3.80;;;;;;;5.13;80.16;99207.88;6079158;23;20025;-65
2022/04/08 08:10:17;;;;;;;3.60;3.50;;;;;;;6.16;79.25;99345.44;6080724;23;20014;-65
2022/04/08 08:12:43;;;;;;;3.53;3.42;;;;;;;7.35;76.77;99527.28;6116149;23;20029;-66
2022/04/08 08:15:10;;;;;;;3.70;3.60;;;;;;;7.54;78.58;99536.69;6101536;23;20013;-65
2022/04/08 08:17:39;;;;;;;3.58;3.47;;;;;;;7.14;75.89;99484.19;6073593;23;20026;-65
2022/04/08 08:20:07;;;;;;;3.75;3.60;;;;;;;7.54;77.56;99524.47;6115608;23;20306;-66
2022/04/08 08:22:34;;;;;;;4.10;3.90;;;;;;;7.80;77.37;99532.53;6096555;23;20092;-65
2022/04/08 08:25:02;;;;;;;3.65;3.55;;;;;;;7.86;77.05;99505.19;6116938;23;20097;-65
2022/04/08 08:27:36;;;;;;;5.30;5.10;;;;;;;7.62;74.51;99502.28;6117758;23;20174;-66
2022/04/08 08:30:04;;;;;;;3.60;3.50;;;;;;;7.84;74.35;99488.78;6130963;23;20121;-65
2022/04/08 08:32:30;;;;;;;5.47;5.28;;;;;;;8.14;73.70;99523.50;6107183;23;20434;-65
2022/04/08 08:34:56;;;;;;;3.70;3.60;;;;;;;7.45;72.50;99501.50;6099802;23;20073;-66
2022/04/08 08:37:23;;;;;;;5.32;5.13;;;;;;;7.92;73.62;99517.91;6108217;23;20092;-66
2022/04/08 08:39:49;;;;;;;3.60;3.50;;;;;;;8.14;74.39;99523.50;6077634;23;20009;-69
2022/04/08 08:42:17;;;;;;;4.43;4.22;;;;;;;7.62;72.02;99508.38;6106898;23;20527;-70
2022/04/08 08:44:44;;;;;;;4.07;3.92;;;;;;;7.74;72.20;99519.84;6106284;23;20486;-65
2022/04/08 08:47:12;;;;;;;3.70;3.60;;;;;;;7.70;71.04;99516.56;6110726;23;20373;-65
2022/04/08 08:49:45;;;;;;;3.70;3.60;;;;;;;7.88;72.24;99513.81;6098204;23;20070;-65
2022/04/08 08:52:11;;;;;;;4.25;4.05;;;;;;;8.23;72.63;99506.41;6102622;23;20068;-66
2022/04/08 08:54:38;;;;;;;4.00;3.80;;;;;;;8.08;70.56;99428.97;6101456;23;20032;-70
2022/04/08 08:57:04;;;;;;;4.00;3.80;;;;;;;8.83;70.50;99505.31;6115437;23;20021;-65
2022/04/08 08:59:31;;;;;;;5.35;5.15;;;;;;;8.81;69.97;99461.88;6116382;23;20096;-66
2022/04/08 09:02:02;;;;;;;3.92;3.75;;;;;;;8.27;69.05;99497.44;6099302;23;20013;-68
2022/04/08 09:04:29;;;;;;;5.45;5.25;;;;;;;8.41;70.39;99488.78;6088765;23;20091;-65
2022/04/08 09:06:56;;;;;;;3.80;3.70;;;;;;;8.69;70.22;99487.88;6097969;23;20505;-65
2022/04/08 09:09:32;;;;;;;5.25;5.05;;;;;;;7.97;67.68;99438.31;6109486;23;20085;-69
2022/04/08 09:12:14;;;;;;;4.20;4.00;;;;;;;8.16;69.61;99469.38;6104714;23;20036;-66
2022/04/08 09:14:49;;;;;;;4.20;4.00;;;;;;;7.93;70.50;99473.41;6103578;23;20435;-71
2022/04/08 09:17:18;;;;;;;4.35;4.15;;;;;;;7.97;68.61;99438.31;6101408;23;20012;-71
2022/04/08 09:19:48;;;;;;;4.00;3.80;;;;;;;7.90;67.44;99462.31;6106241;23;20093;-70
2022/04/08 09:22:15;;;;;;;4.30;4.10;;;;;;;7.99;67.10;99451.28;6092727;23;20018;-66
2022/04/08 09:24:42;;;;;;;4.03;3.83;;;;;;;6.95;68.84;99300.03;6102007;23;20028;-70
2022/04/08 09:27:10;;;;;;;4.00;3.80;;;;;;;7.41;69.95;99387.78;6107697;23;20029;-65
2022/04/08 09:29:37;;;;;;;4.88;4.68;;;;;;;7.84;68.82;99439.16;6106958;23;20367;-65
2022/04/08 09:32:26;;;;;;;5.65;5.45;;;;;;;8.18;67.54;99432.72;6102845;23;20056;-65
2022/04/08 09:34:52;;;;;;;4.10;3.90;;;;;;;8.46;67.74;99438.81;6104547;23;20025;-65
2022/04/08 09:37:19;;;;;;;5.05;4.85;;;;;;;7.74;69.58;99429.28;6110906;23;20006;-65
2022/04/08 09:40:07;;;;;;;4.20;4.00;;;;;;;7.51;71.21;99415.00;6105973;23;20016;-65
2022/04/08 09:42:44;;;;;;;3.78;3.67;;;;;;;8.20;70.39;99428.22;6102730;23;20416;-65
2022/04/08 09:45:12;;;;;;;5.70;5.45;;;;;;;8.43;69.85;99397.19;6097411;23;20085;-67
2022/04/08 09:47:39;;;;;;;3.70;3.60;;;;;;;8.75;67.47;99427.31;6074912;23;20364;-65
2022/04/08 09:50:10;;;;;;;5.15;4.95;;;;;;;8.78;67.25;99424.53;6104392;23;20115;-65
2022/04/08 09:52:39;;;;;;;4.10;3.90;;;;;;;7.94;67.44;99417.63;6091761;23;20080;-66
2022/04/08 09:55:07;;;;;;;5.03;4.82;;;;;;;8.42;68.12;99412.06;6111892;23;20221;-65
2022/04/08 09:57:37;;;;;;;4.00;3.80;;;;;;;8.61;67.21;99403.84;6104353;23;20140;-66
2022/04/08 10:00:06;;;;;;;5.30;5.10;;;;;;;8.96;67.32;99413.75;6104098;23;20067;-66
2022/04/08 10:02:40;;;;;;;4.07;3.88;;;;;;;8.25;65.23;99355.56;6104296;23;20215;-65
2022/04/08 10:05:09;;;;;;;5.50;5.28;;;;;;;8.80;64.73;99421.81;6104570;23;20083;-65
2022/04/08 10:07:38;;;;;;;4.10;3.90;;;;;;;8.89;64.16;99415.97;6112625;23;20037;-65
2022/04/08 10:10:35;;;;;;;6.05;5.75;;;;;;;8.94;65.76;99413.91;6085691;23;20021;-66
2022/04/08 10:13:20;;;;;;;5.25;5.00;;;;;;;8.99;65.48;99410.97;6105601;23;20021;-65
2022/04/08 10:16:10;;;;;;;4.30;4.10;;;;;;;9.17;65.44;99419.38;6108268;23;20255;-66
2022/04/08 10:18:39;;;;;;;4.20;4.00;;;;;;;9.14;65.94;99375.06;6109112;23;20076;-65
2022/04/08 10:21:06;;;;;;;5.32;5.13;;;;;;;9.69;65.20;99425.47;6100363;23;20030;-66
2022/04/08 10:23:36;;;;;;;4.60;4.40;;;;;;;9.54;64.24;99411.63;6087004;23;20089;-66
2022/04/08 10:26:04;;;;;;;4.47;4.28;;;;;;;9.57;61.50;99407.03;6066837;23;20106;-65
2022/04/08 10:28:37;;;;;;;4.18;3.97;;;;;;;9.70;62.72;99407.03;6054349;23;20029;-66
2022/04/08 10:31:15;;;;;;;5.25;5.05;;;;;;;8.33;61.33;99371.59;6077108;23;20021;-65
2022/04/08 10:33:47;;;;;;;4.30;4.10;;;;;;;8.78;63.14;99423.69;6057350;23;20018;-66
2022/04/08 10:36:14;;;;;;;6.25;5.95;;;;;;;9.01;64.29;99424.78;6072793;23;20021;-66
2022/04/08 10:38:41;;;;;;;4.15;3.95;;;;;;;9.06;62.47;99420.09;6078674;23;20431;-66
2022/04/08 10:41:10;;;;;;;6.00;5.70;;;;;;;9.23;62.20;99413.72;6068700;23;20416;-66
2022/04/08 10:43:44;;;;;;;4.20;4.00;;;;;;;9.31;62.20;99407.97;6075048;23;20092;-65
2022/04/08 10:46:11;;;;;;;5.53;5.32;;;;;;;9.45;62.85;99389.53;6071419;23;20574;-66
2022/04/08 10:48:37;;;;;;;4.90;4.70;;;;;;;9.53;62.63;99397.69;6074179;23;20009;-66
2022/04/08 10:51:11;;;;;;;5.30;5.10;;;;;;;8.42;62.66;99207.28;6081400;23;20052;-65
2022/04/08 10:53:42;;;;;;;4.40;4.20;;;;;;;9.38;62.49;99391.75;6069188;23;20018;-70
2022/04/08 10:56:14;;;;;;;6.05;5.75;;;;;;;9.20;61.32;99377.28;6072154;23;20030;-65
2022/04/08 10:58:49;;;;;;;4.10;3.90;;;;;;;9.06;62.68;99328.50;6078564;23;20393;-65
2022/04/08 11:01:24;;;;;;;6.15;5.85;;;;;;;8.93;62.72;99357.25;6073791;23;20055;-65
2022/04/08 11:03:53;;;;;;;4.75;4.45;;;;;;;8.50;65.75;99357.50;6083498;23;20098;-66
2022/04/08 11:06:19;;;;;;;5.10;4.90;;;;;;;8.39;65.20;99320.72;6055291;23;20009;-70
2022/04/08 11:08:46;;;;;;;4.20;4.00;;;;;;;7.12;63.38;99166.00;6087321;23;20014;-70
2022/04/08 11:11:13;;;;;;;5.80;5.55;;;;;;;8.32;65.03;99335.97;6060728;23;20051;-65
2022/04/08 11:13:43;;;;;;;3.90;3.80;;;;;;;8.65;66.62;99332.09;6065207;23;20075;-66
2022/04/08 11:16:10;;;;;;;5.53;5.32;;;;;;;8.77;64.83;99315.59;6074311;23;20014;-71
2022/04/08 11:18:46;;;;;;;3.80;3.70;;;;;;;8.52;63.95;99305.06;6066757;23;20014;-69
2022/04/08 11:21:19;;;;;;;5.47;5.28;;;;;;;8.72;64.36;99285.44;6083876;23;20170;-66
2022/04/08 11:24:09;;;;;;;4.40;4.20;;;;;;;9.05;62.45;99318.97;6085344;23;20300;-66
2022/04/08 11:26:50;;;;;;;3.95;3.80;;;;;;;8.96;59.22;99316.97;6113126;23;20037;-69
2022/04/08 11:29:19;;;;;;;4.60;4.40;;;;;;;9.33;61.35;99317.06;6076057;23;20517;-68
2022/04/08 11:31:47;;;;;;;4.15;3.95;;;;;;;9.53;60.15;99313.91;6111518;23;20045;-66
2022/04/08 11:34:15;;;;;;;4.65;4.45;;;;;;;9.75;59.80;99356.94;6083649;23;20010;-69
2022/04/08 11:36:43;;;;;;;5.40;5.20;;;;;;;9.28;57.26;99261.56;6120813;23;20118;-72
2022/04/08 11:39:18;;;;;;;4.10;3.90;;;;;;;9.05;57.97;99305.88;6089929;23;20058;-70
2022/04/08 11:41:50;;;;;;;5.28;5.07;;;;;;;8.84;56.12;99302.94;6115034;23;20482;-66
2022/04/08 11:44:17;;;;;;;4.20;4.00;;;;;;;8.85;57.40;99248.84;6078819;23;20295;-66